Time;durP1;ratioP1;P1;durP2;ratioP2;P2;SDS_P1;SDS_P2;PMS_P1;PMS_P2;Temp;Humidity;BMP_temperature;BMP_pressure;BME280_temperature;BME280_humidity;BME280_pressure;Samples;Min_cycle;Max_cycle;Signal;HPM_P1;HPM_P2
2022/08/30 00:03:15;;;;;;;15.70;12.90;;;;;;;21.37;71.89;99432.19;103670;1289;137830;-58
2022/08/30 00:05:43;;;;;;;17.10;12.60;;;;;;;21.33;72.03;99430.76;103597;1289;23986;-58
2022/08/30 00:08:09;;;;;;;17.20;14.20;;;;;;;21.30;72.18;99431.02;107887;1288;137800;-59
2022/08/30 00:10:37;;;;;;;23.20;13.70;;;;;;;21.28;72.31;99431.09;107042;1286;1236239;-59
2022/08/30 00:13:05;;;;;;;17.90;13.00;;;;;;;21.25;72.42;99433.44;108298;1286;23318;-58
2022/08/30 00:15:32;;;;;;;20.00;12.70;;;;;;;21.23;72.58;99437.28;108125;1286;138042;-58
2022/08/30 00:17:59;;;;;;;16.70;12.50;;;;;;;21.21;72.70;99436.65;108288;1286;22348;-58
2022/08/30 00:20:28;;;;;;;19.30;12.90;;;;;;;21.19;72.82;99435.38;108021;1286;139526;-58
2022/08/30 00:22:55;;;;;;;19.50;12.70;;;;;;;21.16;72.88;99434.30;108295;1286;23339;-58
2022/08/30 00:25:21;;;;;;;16.30;12.50;;;;;;;21.13;73.14;99437.84;108281;1286;22461;-59
2022/08/30 00:27:49;;;;;;;17.50;13.80;;;;;;;21.11;73.24;99436.61;108165;1286;140788;-59
2022/08/30 00:30:16;;;;;;;19.50;13.40;;;;;;;21.10;73.28;99433.21;108188;1286;22870;-58
2022/08/30 00:32:42;;;;;;;17.60;12.90;;;;;;;21.06;73.46;99434.15;108166;1285;139490;-59
2022/08/30 00:35:10;;;;;;;17.90;13.30;;;;;;;21.03;73.66;99435.04;108259;1286;22414;-58
2022/08/30 00:37:37;;;;;;;15.40;13.50;;;;;;;21.02;73.83;99435.95;108025;1287;23307;-59
2022/08/30 00:40:05;;;;;;;23.10;12.90;;;;;;;21.03;73.89;99430.88;108148;1286;139295;-58
2022/08/30 00:42:32;;;;;;;18.80;13.30;;;;;;;21.04;73.91;99435.73;107938;1288;22497;-59
2022/08/30 00:44:59;;;;;;;21.00;13.80;;;;;;;21.04;73.92;99436.84;108134;1286;138847;-59
2022/08/30 00:47:26;;;;;;;19.00;13.70;;;;;;;21.04;73.99;99440.38;107986;1286;22478;-59
2022/08/30 00:49:53;;;;;;;20.00;13.40;;;;;;;21.04;74.06;99439.31;108261;1286;22426;-59
2022/08/30 00:52:21;;;;;;;19.20;13.00;;;;;;;21.03;74.03;99443.39;107830;1286;138297;-59
2022/08/30 00:54:47;;;;;;;16.20;12.70;;;;;;;21.03;74.09;99444.10;108164;1286;22453;-59
2022/08/30 00:57:14;;;;;;;18.10;12.50;;;;;;;21.02;74.01;99445.04;108118;1286;139629;-59
2022/08/30 00:59:43;;;;;;;16.40;13.20;;;;;;;20.99;74.07;99442.73;108188;1286;22675;-58
2022/08/30 01:02:10;;;;;;;20.10;13.20;;;;;;;20.97;74.13;99447.23;107754;1289;138703;-59
2022/08/30 01:04:39;;;;;;;16.60;12.40;;;;;;;20.94;74.13;99449.21;109252;1275;22416;-58
2022/08/30 01:07:07;;;;;;;16.30;12.70;;;;;;;20.93;74.25;99449.78;109089;1276;22475;-59
2022/08/30 01:09:34;;;;;;;19.80;12.50;;;;;;;20.89;74.33;99446.80;109193;1274;139164;-59
2022/08/30 01:12:03;;;;;;;17.40;13.60;;;;;;;20.86;74.47;99446.51;109199;1277;22545;-59
2022/08/30 01:14:32;;;;;;;16.10;12.10;;;;;;;20.84;74.53;99446.48;108933;1277;165520;-59
2022/08/30 01:17:00;;;;;;;16.50;12.40;;;;;;;20.81;74.62;99446.89;109224;1276;23286;-59
2022/08/30 01:19:33;;;;;;;17.00;11.80;;;;;;;20.78;74.68;99447.64;109216;1275;22513;-59
2022/08/30 01:22:17;;;;;;;20.30;13.00;;;;;;;20.75;74.81;99449.55;109184;1276;137998;-59
2022/08/30 01:24:47;;;;;;;15.60;11.80;;;;;;;20.71;74.87;99450.16;109141;1276;23270;-59
2022/08/30 01:27:14;;;;;;;18.10;12.30;;;;;;;20.67;74.97;99449.83;109149;1276;138329;-59
2022/08/30 01:29:43;;;;;;;15.50;12.50;;;;;;;20.65;75.15;99447.52;109145;1274;23009;-59
2022/08/30 01:32:28;;;;;;;15.40;12.70;;;;;;;20.63;75.24;99444.98;109132;1274;138131;-59
2022/08/30 01:34:55;;;;;;;19.10;13.10;;;;;;;20.61;75.35;99441.80;109289;1276;22460;-59
2022/08/30 01:37:26;;;;;;;16.50;12.20;;;;;;;20.57;75.50;99438.38;109384;1274;22426;-58
2022/08/30 01:39:52;;;;;;;16.10;13.10;;;;;;;20.55;75.57;99441.60;109125;1276;138606;-58
2022/08/30 01:42:19;;;;;;;19.90;12.60;;;;;;;20.52;75.70;99437.27;109213;1275;23110;-59
2022/08/30 01:44:47;;;;;;;16.30;13.30;;;;;;;20.50;75.82;99440.88;109117;1277;138628;-59
2022/08/30 01:47:14;;;;;;;17.70;13.10;;;;;;;20.45;75.91;99436.05;109178;1276;22488;-59
2022/08/30 01:49:41;;;;;;;19.80;13.20;;;;;;;20.43;76.18;99440.20;109369;1273;22466;-59
2022/08/30 01:52:08;;;;;;;19.10;11.90;;;;;;;20.41;76.27;99439.61;109182;1277;138190;-59
2022/08/30 01:54:36;;;;;;;16.90;13.10;;;;;;;20.38;76.47;99441.59;109245;1277;22538;-59
2022/08/30 01:57:08;;;;;;;19.50;12.40;;;;;;;20.36;76.67;99445.13;109140;1276;138343;-59
2022/08/30 01:59:35;;;;;;;16.80;12.70;;;;;;;20.33;76.81;99446.75;109251;1275;22459;-59
2022/08/30 02:02:03;;;;;;;16.60;13.80;;;;;;;20.32;76.91;99445.74;109274;1276;22472;-59
2022/08/30 02:04:30;;;;;;;16.90;13.10;;;;;;;20.30;76.90;99452.05;109194;1274;139344;-59
2022/08/30 02:06:56;;;;;;;17.00;13.70;;;;;;;20.28;77.05;99447.75;109456;1273;22624;-59
2022/08/30 02:09:23;;;;;;;16.10;12.80;;;;;;;20.24;77.26;99447.23;109187;1274;138128;-59
2022/08/30 02:11:50;;;;;;;18.10;13.10;;;;;;;20.21;77.49;99448.61;109406;1274;22469;-59
2022/08/30 02:14:17;;;;;;;25.90;14.00;;;;;;;20.20;77.64;99458.35;109156;1275;138417;-60
2022/08/30 02:16:47;;;;;;;15.90;12.80;;;;;;;20.18;77.70;99453.70;109295;1276;22444;-59
2022/08/30 02:19:14;;;;;;;16.50;13.20;;;;;;;20.17;77.79;99455.35;109401;1274;23029;-59
2022/08/30 02:21:41;;;;;;;17.70;13.30;;;;;;;20.15;77.86;99457.89;109268;1274;137980;-59
2022/08/30 02:24:07;;;;;;;22.30;14.40;;;;;;;20.12;77.93;99457.55;109409;1274;23789;-59
2022/08/30 02:26:35;;;;;;;18.90;13.90;;;;;;;20.10;78.06;99462.48;109189;1276;139401;-58
2022/08/30 02:29:04;;;;;;;15.60;13.00;;;;;;;20.09;78.25;99463.23;109253;1276;22450;-59
2022/08/30 02:31:31;;;;;;;16.00;13.20;;;;;;;20.07;78.30;99464.73;109467;1274;22564;-59
2022/08/30 02:33:58;;;;;;;20.10;13.20;;;;;;;20.05;78.44;99465.96;109238;1274;138066;-58
2022/08/30 02:36:24;;;;;;;22.20;12.90;;;;;;;20.03;78.58;99467.41;109332;1274;23224;-59
2022/08/30 02:38:51;;;;;;;15.90;12.90;;;;;;;20.02;78.61;99467.50;109287;1273;139870;-59
2022/08/30 02:41:18;;;;;;;22.20;13.10;;;;;;;20.02;78.68;99472.45;109284;1276;22561;-59
2022/08/30 02:43:45;;;;;;;13.80;12.20;;;;;;;19.99;78.80;99473.02;109321;1274;23171;-58
2022/08/30 02:46:12;;;;;;;21.60;13.50;;;;;;;19.97;78.92;99480.55;109299;1274;138581;-58
2022/08/30 02:48:39;;;;;;;18.00;13.20;;;;;;;19.94;78.99;99475.43;109362;1274;23423;-58
2022/08/30 02:51:08;;;;;;;14.10;12.70;;;;;;;19.91;79.03;99478.77;109196;1276;141125;-58
2022/08/30 02:53:38;;;;;;;16.20;14.10;;;;;;;19.89;79.18;99485.95;109367;1274;22370;-59
2022/08/30 02:56:04;;;;;;;18.80;12.60;;;;;;;19.86;79.34;99483.42;109370;1274;22418;-58
2022/08/30 02:58:31;;;;;;;15.20;13.50;;;;;;;19.82;79.50;99485.35;109269;1274;138603;-58
2022/08/30 03:00:58;;;;;;;15.10;13.20;;;;;;;19.77;79.64;99485.06;109344;1275;22320;-56
2022/08/30 03:03:25;;;;;;;17.30;13.90;;;;;;;19.75;79.73;99487.88;109155;1274;139985;-56
2022/08/30 03:05:52;;;;;;;18.40;13.80;;;;;;;19.72;79.97;99490.55;109395;1274;23281;-56
2022/08/30 03:08:18;;;;;;;20.50;13.50;;;;;;;19.69;80.04;99489.86;109202;1274;139254;-58
2022/08/30 03:10:45;;;;;;;16.30;14.50;;;;;;;19.67;80.23;99489.45;109392;1274;22661;-57
2022/08/30 03:13:12;;;;;;;16.50;13.90;;;;;;;19.67;80.38;99496.61;109232;1276;22453;-57
2022/08/30 03:15:39;;;;;;;17.40;14.40;;;;;;;19.64;80.40;99496.00;109317;1274;139541;-58
2022/08/30 03:18:06;;;;;;;17.70;14.40;;;;;;;19.62;80.61;99493.96;109354;1274;22436;-58
2022/08/30 03:20:36;;;;;;;17.40;15.00;;;;;;;19.61;80.66;99497.05;109237;1274;139020;-58
2022/08/30 03:23:03;;;;;;;20.40;15.10;;;;;;;19.59;80.84;99493.02;109360;1277;23321;-58
2022/08/30 03:25:30;;;;;;;22.60;15.10;;;;;;;19.57;80.95;99496.61;109475;1274;23225;-59
2022/08/30 03:27:57;;;;;;;23.10;16.10;;;;;;;19.54;81.11;99502.76;109212;1274;138891;-59
2022/08/30 03:30:24;;;;;;;21.50;16.20;;;;;;;19.51;81.31;99498.26;109329;1276;22451;-59
2022/08/30 03:32:51;;;;;;;22.40;16.00;;;;;;;19.49;81.53;99501.71;109162;1274;140358;-59
2022/08/30 03:35:18;;;;;;;20.00;15.30;;;;;;;19.48;81.79;99500.14;109244;1277;22457;-59
2022/08/30 03:37:45;;;;;;;19.40;15.70;;;;;;;19.47;81.83;99505.37;109414;1273;23242;-58
2022/08/30 03:40:13;;;;;;;21.00;16.90;;;;;;;19.44;81.86;99515.76;109295;1274;138117;-59
2022/08/30 03:42:41;;;;;;;21.10;16.20;;;;;;;19.41;82.15;99517.83;109399;1274;22458;-59
2022/08/30 03:45:09;;;;;;;17.90;15.90;;;;;;;19.39;82.11;99521.15;109348;1274;138242;-59
2022/08/30 03:47:36;;;;;;;18.00;16.10;;;;;;;19.36;82.18;99524.86;109188;1277;22462;-59
2022/08/30 03:50:06;;;;;;;20.10;17.30;;;;;;;19.35;82.31;99528.81;109284;1275;22443;-59
2022/08/30 03:52:33;;;;;;;23.50;17.60;;;;;;;19.33;82.42;99532.91;109397;1274;23233;-59
2022/08/30 03:55:00;;;;;;;22.10;16.80;;;;;;;19.28;82.63;99536.34;109166;1276;22435;-59
2022/08/30 03:57:27;;;;;;;22.80;18.10;;;;;;;19.27;82.77;99539.80;109327;1274;140081;-59
2022/08/30 03:59:54;;;;;;;20.10;16.80;;;;;;;19.25;82.86;99540.11;109287;1276;22486;-58
2022/08/30 04:02:21;;;;;;;20.10;16.90;;;;;;;19.23;83.07;99543.15;109242;1274;138617;-59
2022/08/30 04:04:48;;;;;;;22.30;17.10;;;;;;;19.21;83.16;99546.09;109285;1276;23327;-59
2022/08/30 04:07:14;;;;;;;22.50;17.90;;;;;;;19.19;83.29;99547.41;109260;1276;22603;-59
2022/08/30 04:09:41;;;;;;;20.70;17.30;;;;;;;19.18;83.51;99551.55;109292;1274;138679;-59
2022/08/30 04:12:08;;;;;;;19.70;16.90;;;;;;;19.17;83.60;99551.45;109375;1274;22582;-59
2022/08/30 04:14:35;;;;;;;18.50;16.40;;;;;;;19.16;83.84;99549.31;109287;1274;138752;-59
2022/08/30 04:17:01;;;;;;;21.90;16.50;;;;;;;19.16;84.09;99550.64;109470;1274;22333;-59
2022/08/30 04:19:28;;;;;;;20.80;17.60;;;;;;;19.15;84.13;99547.18;109487;1274;22551;-59
2022/08/30 04:21:56;;;;;;;20.00;17.40;;;;;;;19.14;84.32;99544.45;109196;1275;140259;-58
2022/08/30 04:24:23;;;;;;;18.00;16.20;;;;;;;19.13;84.47;99541.98;109374;1275;23026;-58
2022/08/30 04:26:49;;;;;;;23.10;17.20;;;;;;;19.13;84.57;99547.83;109198;1274;138565;-58
2022/08/30 04:29:16;;;;;;;16.90;15.10;;;;;;;19.14;84.78;99547.96;109384;1274;23138;-58
2022/08/30 04:31:44;;;;;;;18.30;16.30;;;;;;;19.14;84.69;99547.31;109471;1274;22465;-58
2022/08/30 04:34:11;;;;;;;19.50;16.60;;;;;;;19.13;84.88;99548.77;109194;1274;140236;-59
2022/08/30 04:36:38;;;;;;;19.00;15.70;;;;;;;19.15;84.98;99553.14;109463;1274;22439;-59
2022/08/30 04:39:05;;;;;;;18.50;15.30;;;;;;;19.17;85.00;99549.62;109136;1276;139389;-58
2022/08/30 04:41:33;;;;;;;19.10;14.40;;;;;;;19.20;85.08;99544.67;105082;1277;25424;-59
2022/08/30 04:44:01;;;;;;;16.90;15.00;;;;;;;19.21;84.96;99544.91;105073;1274;25541;-58
2022/08/30 04:46:29;;;;;;;17.20;12.80;;;;;;;19.23;85.00;99550.94;109242;1274;139024;-58
2022/08/30 04:48:55;;;;;;;15.80;13.90;;;;;;;19.27;85.00;99548.16;109312;1275;22453;-59
2022/08/30 04:51:22;;;;;;;14.80;13.20;;;;;;;19.31;84.90;99550.10;109245;1274;138497;-58
2022/08/30 04:53:49;;;;;;;16.10;12.80;;;;;;;19.35;84.65;99554.34;109210;1274;22464;-58
2022/08/30 04:56:18;;;;;;;16.90;13.40;;;;;;;19.39;84.47;99551.15;109194;1274;138670;-59
2022/08/30 04:58:46;;;;;;;15.10;12.80;;;;;;;19.44;84.25;99553.47;109212;1274;22472;-58
2022/08/30 05:01:14;;;;;;;15.00;12.30;;;;;;;19.48;84.18;99553.14;109204;1274;22532;-58
2022/08/30 05:03:45;;;;;;;13.20;11.90;;;;;;;19.53;83.91;99556.40;109215;1274;138884;-58
2022/08/30 05:06:11;;;;;;;13.10;11.80;;;;;;;19.58;83.49;99557.12;109255;1274;23552;-59
2022/08/30 05:08:38;;;;;;;12.10;10.30;;;;;;;19.63;83.34;99558.94;109137;1274;139803;-59
2022/08/30 05:11:11;;;;;;;11.30;10.10;;;;;;;19.68;82.97;99555.39;109197;1274;22576;-59
2022/08/30 05:13:38;;;;;;;13.80;11.20;;;;;;;19.73;82.66;99556.89;109285;1274;22274;-59
2022/08/30 05:16:05;;;;;;;13.30;10.80;;;;;;;19.78;82.39;99558.95;109164;1274;138803;-59
2022/08/30 05:18:33;;;;;;;15.30;10.40;;;;;;;19.82;81.92;99556.91;109322;1274;22438;-59
2022/08/30 05:21:08;;;;;;;13.70;10.50;;;;;;;19.85;81.81;99553.13;109261;1274;139860;-58
2022/08/30 05:23:35;;;;;;;11.20;9.80;;;;;;;19.88;81.56;99554.71;109304;1274;22565;-59
2022/08/30 05:26:07;;;;;;;25.20;11.90;;;;;;;19.90;81.34;99552.38;109213;1274;22433;-59
2022/08/30 05:28:34;;;;;;;24.20;16.10;;;;;;;19.93;81.13;99552.92;109315;1274;22542;-58
2022/08/30 05:31:01;;;;;;;12.80;9.70;;;;;;;19.98;81.03;99556.02;109314;1275;22638;-59
2022/08/30 05:33:28;;;;;;;16.40;12.10;;;;;;;20.02;80.70;99557.50;109226;1277;139080;-59
2022/08/30 05:35:55;;;;;;;10.50;9.40;;;;;;;20.06;80.19;99552.00;109285;1274;22406;-59
2022/08/30 05:38:22;;;;;;;10.60;7.80;;;;;;;20.10;79.89;99550.78;109146;1274;140112;-58
2022/08/30 05:40:50;;;;;;;19.90;9.10;;;;;;;20.16;79.47;99552.38;109353;1274;22463;-58
2022/08/30 05:43:17;;;;;;;11.10;9.80;;;;;;;20.21;79.16;99550.71;109220;1277;22451;-59
2022/08/30 05:45:44;;;;;;;19.20;14.30;;;;;;;20.29;79.23;99552.40;109094;1276;139785;-59
2022/08/30 05:48:10;;;;;;;11.60;9.80;;;;;;;20.43;79.16;99552.73;109219;1276;22452;-59
2022/08/30 05:50:38;;;;;;;12.90;9.30;;;;;;;20.59;78.52;99551.02;109261;1274;140039;-59
2022/08/30 05:53:05;;;;;;;12.20;8.40;;;;;;;20.74;77.78;99550.47;109235;1276;22980;-59
2022/08/30 05:55:32;;;;;;;8.80;6.90;;;;;;;20.87;77.42;99545.03;109143;1276;22484;-59
2022/08/30 05:57:59;;;;;;;9.70;7.40;;;;;;;21.01;76.94;99548.84;109200;1274;138768;-59
2022/08/30 06:00:29;;;;;;;12.10;6.90;;;;;;;21.13;76.41;99547.05;109254;1277;23141;-59
2022/08/30 06:02:55;;;;;;;22.70;7.70;;;;;;;21.25;75.77;99541.88;108982;1274;139167;-59
2022/08/30 06:05:23;;;;;;;9.00;6.90;;;;;;;21.36;75.13;99541.37;109291;1274;26040;-58
2022/08/30 06:07:49;;;;;;;7.00;6.30;;;;;;;21.46;74.46;99542.92;109289;1276;22448;-59
2022/08/30 06:10:16;;;;;;;10.20;6.90;;;;;;;21.54;73.99;99540.02;109243;1276;138970;-59
2022/08/30 06:12:43;;;;;;;15.10;6.80;;;;;;;21.62;73.71;99542.09;109376;1274;22639;-59
2022/08/30 06:15:10;;;;;;;10.30;6.70;;;;;;;21.70;73.20;99544.58;109193;1274;139229;-59
2022/08/30 06:17:38;;;;;;;32.80;9.30;;;;;;;21.76;72.82;99546.89;109432;1274;22483;-59
2022/08/30 06:20:06;;;;;;;9.80;6.40;;;;;;;21.82;72.38;99546.42;109282;1274;22460;-59
2022/08/30 06:22:33;;;;;;;8.70;6.00;;;;;;;21.88;72.04;99547.27;109246;1274;138739;-59
2022/08/30 06:25:00;;;;;;;7.00;6.30;;;;;;;21.96;71.68;99549.77;109238;1277;23103;-59
2022/08/30 06:27:26;;;;;;;12.90;6.60;;;;;;;22.02;71.22;99550.63;109138;1276;139192;-59
2022/08/30 06:29:53;;;;;;;8.00;6.10;;;;;;;22.07;71.23;99553.15;109231;1277;23418;-59
2022/08/30 06:32:20;;;;;;;8.60;6.00;;;;;;;22.12;70.64;99552.63;109148;1274;139015;-59
2022/08/30 06:34:47;;;;;;;7.90;5.80;;;;;;;22.16;70.27;99552.04;109119;1277;23118;-58
2022/08/30 06:37:14;;;;;;;10.30;6.30;;;;;;;22.22;69.78;99556.77;109257;1274;22559;-59
2022/08/30 06:39:56;;;;;;;6.20;5.60;;;;;;;22.28;69.52;99556.61;109052;1277;138242;-60
2022/08/30 06:42:29;;;;;;;8.30;5.60;;;;;;;22.34;69.29;99555.76;109227;1275;22465;-58
2022/08/30 06:44:57;;;;;;;9.50;5.10;;;;;;;22.42;68.65;99554.17;109291;1274;138264;-59
2022/08/30 06:47:24;;;;;;;7.90;4.90;;;;;;;22.48;68.02;99550.38;109284;1274;22487;-59
2022/08/30 06:49:50;;;;;;;7.50;5.30;;;;;;;22.54;67.31;99550.70;109315;1274;22488;-59
2022/08/30 06:52:18;;;;;;;7.10;4.80;;;;;;;22.60;66.72;99552.57;109328;1274;138482;-59
2022/08/30 06:54:44;;;;;;;5.80;4.70;;;;;;;22.63;66.15;99555.81;109410;1274;22512;-59
2022/08/30 06:57:11;;;;;;;7.90;5.10;;;;;;;22.66;65.66;99555.91;109237;1274;138639;-59
2022/08/30 06:59:38;;;;;;;6.20;4.50;;;;;;;22.66;65.32;99553.98;109351;1274;22454;-59
2022/08/30 07:02:05;;;;;;;5.30;4.80;;;;;;;22.65;64.31;99557.93;109245;1275;22429;-59
2022/08/30 07:04:32;;;;;;;4.80;4.20;;;;;;;22.65;63.62;99559.75;109267;1274;137840;-59
2022/08/30 07:06:59;;;;;;;5.60;3.90;;;;;;;22.66;63.74;99563.76;109382;1274;23330;-59
2022/08/30 07:09:26;;;;;;;16.80;4.90;;;;;;;22.70;63.44;99561.37;109336;1274;137575;-58
2022/08/30 07:11:53;;;;;;;5.50;4.80;;;;;;;22.75;62.95;99566.20;109390;1274;22512;-59
2022/08/30 07:14:20;;;;;;;8.20;4.40;;;;;;;22.79;62.43;99562.55;109232;1274;138000;-58
2022/08/30 07:16:46;;;;;;;5.80;4.50;;;;;;;22.82;62.01;99567.52;109348;1275;22471;-59
2022/08/30 07:19:17;;;;;;;5.80;4.20;;;;;;;22.86;61.62;99565.27;109467;1274;22530;-58
2022/08/30 07:21:47;;;;;;;5.30;4.60;;;;;;;22.88;60.99;99565.92;109247;1275;137930;-59
2022/08/30 07:24:15;;;;;;;6.30;4.40;;;;;;;22.88;60.77;99564.52;109289;1277;23171;-58
2022/08/30 07:26:46;;;;;;;5.40;3.60;;;;;;;22.90;61.02;99565.52;109092;1276;138731;-59
2022/08/30 07:29:12;;;;;;;12.90;4.20;;;;;;;22.94;61.08;99566.46;109420;1274;23537;-59
2022/08/30 07:31:39;;;;;;;4.80;3.40;;;;;;;23.00;60.35;99567.10;109378;1274;23324;-59
2022/08/30 07:34:06;;;;;;;5.10;3.90;;;;;;;23.06;59.92;99569.21;109265;1274;138401;-59
2022/08/30 07:36:34;;;;;;;9.70;3.90;;;;;;;23.10;59.36;99570.08;109396;1274;23417;-60
2022/08/30 07:39:01;;;;;;;9.10;4.20;;;;;;;23.14;58.87;99573.88;109140;1276;137379;-59
2022/08/30 07:41:37;;;;;;;7.80;4.10;;;;;;;23.15;57.90;99573.31;109384;1274;23652;-59
2022/08/30 07:44:06;;;;;;;5.00;3.60;;;;;;;23.16;57.19;99568.34;109395;1274;22519;-59
2022/08/30 07:46:33;;;;;;;7.00;3.70;;;;;;;23.17;57.78;99564.73;109328;1274;138219;-59
2022/08/30 07:49:00;;;;;;;3.70;3.30;;;;;;;23.20;57.56;99561.98;109262;1276;23674;-59
2022/08/30 07:51:29;;;;;;;9.40;3.80;;;;;;;23.24;57.77;99563.13;109165;1276;137728;-59
2022/08/30 07:53:56;;;;;;;27.90;4.50;;;;;;;23.28;57.43;99564.89;109353;1276;22435;-59
2022/08/30 07:56:23;;;;;;;10.30;4.40;;;;;;;23.33;56.26;99566.33;109389;1274;139926;-59
2022/08/30 07:58:50;;;;;;;4.40;3.90;;;;;;;23.36;55.97;99566.76;109232;1276;23214;-59
2022/08/30 08:01:17;;;;;;;8.20;3.90;;;;;;;23.39;56.05;99565.20;109360;1274;22596;-59
2022/08/30 08:03:44;;;;;;;5.50;3.60;;;;;;;23.42;55.93;99569.69;109213;1274;137535;-59
2022/08/30 08:06:12;;;;;;;8.30;4.00;;;;;;;23.45;56.20;99570.29;109384;1274;22256;-58
2022/08/30 08:08:39;;;;;;;6.00;3.90;;;;;;;23.50;56.14;99571.10;109274;1274;138297;-58
2022/08/30 08:11:14;;;;;;;6.00;4.00;;;;;;;23.56;56.06;99564.41;109350;1274;22467;-58
2022/08/30 08:13:42;;;;;;;9.70;3.90;;;;;;;23.60;55.65;99557.81;109283;1277;23269;-58
2022/08/30 08:16:21;;;;;;;7.00;3.80;;;;;;;23.63;54.00;99561.08;109181;1276;138571;-58
2022/08/30 08:18:48;;;;;;;5.70;3.30;;;;;;;23.64;54.38;99564.61;109463;1273;23226;-58
2022/08/30 08:21:14;;;;;;;6.00;3.90;;;;;;;23.67;54.70;99562.73;109290;1274;137293;-58
2022/08/30 08:23:41;;;;;;;9.00;3.70;;;;;;;23.69;53.73;99564.79;109289;1274;22419;-58
2022/08/30 08:26:08;;;;;;;12.10;4.30;;;;;;;23.73;53.51;99560.30;109205;1274;137426;-61
2022/08/30 08:28:35;;;;;;;6.00;3.60;;;;;;;23.74;53.25;99559.08;109209;1276;22450;-58
2022/08/30 08:31:02;;;;;;;7.10;3.70;;;;;;;23.77;52.90;99565.54;109376;1274;22437;-59
2022/08/30 08:33:29;;;;;;;7.90;3.90;;;;;;;23.78;53.14;99566.48;109142;1276;138211;-58
2022/08/30 08:35:56;;;;;;;4.70;4.00;;;;;;;23.81;53.35;99567.83;109427;1274;23470;-58
2022/08/30 08:38:22;;;;;;;10.80;3.80;;;;;;;23.82;52.85;99566.21;109170;1277;138452;-58
2022/08/30 08:41:09;;;;;;;7.10;3.50;;;;;;;23.84;52.09;99566.10;109381;1274;22489;-58
2022/08/30 08:43:36;;;;;;;6.40;3.60;;;;;;;23.86;52.10;99563.55;109304;1276;22437;-58
2022/08/30 08:46:09;;;;;;;6.00;4.00;;;;;;;23.88;51.01;99565.30;109202;1274;138870;-58
2022/08/30 08:48:48;;;;;;;5.80;4.10;;;;;;;23.91;50.60;99568.67;109391;1274;22569;-58
2022/08/30 08:54:23;;;;;;;7.80;4.00;;;;;;;23.95;50.24;99566.81;109483;1274;22469;-58
2022/08/30 08:56:50;;;;;;;7.90;3.70;;;;;;;23.98;50.13;99571.77;109075;1274;139266;-58
2022/08/30 08:59:17;;;;;;;12.70;4.00;;;;;;;23.98;49.82;99565.64;109389;1274;22439;-58
2022/08/30 09:01:44;;;;;;;9.30;4.30;;;;;;;23.96;49.69;99567.71;109378;1274;23186;-57
2022/08/30 09:04:13;;;;;;;5.50;3.40;;;;;;;23.96;50.02;99566.98;109179;1274;138622;-58
2022/08/30 09:06:57;;;;;;;4.80;3.40;;;;;;;23.97;49.79;99566.39;109489;1274;24057;-57
2022/08/30 09:09:26;;;;;;;6.00;3.70;;;;;;;23.98;50.15;99560.32;109133;1274;139258;-58
2022/08/30 09:11:53;;;;;;;9.60;4.80;;;;;;;24.00;50.89;99562.94;109081;1276;22471;-58
2022/08/30 09:14:29;;;;;;;4.30;3.60;;;;;;;24.04;50.97;99565.52;109297;1272;137454;-57
2022/08/30 09:17:04;;;;;;;9.20;3.30;;;;;;;24.06;49.72;99563.92;109337;1274;22416;-58
2022/08/30 09:19:33;;;;;;;9.80;3.90;;;;;;;24.05;49.09;99564.22;109354;1274;22518;-59
2022/08/30 09:22:03;;;;;;;7.00;3.60;;;;;;;24.04;49.15;99568.23;109335;1274;138229;-59
2022/08/30 09:24:38;;;;;;;6.60;3.90;;;;;;;24.02;48.85;99563.14;109208;1276;23331;-59
2022/08/30 09:27:15;;;;;;;7.60;4.00;;;;;;;24.02;49.35;99563.92;109176;1274;138001;-59
2022/08/30 09:29:53;;;;;;;5.60;3.40;;;;;;;24.05;49.90;99564.77;109435;1274;22465;-59
2022/08/30 09:32:36;;;;;;;8.50;3.40;;;;;;;24.10;49.70;99562.12;109007;1277;138824;-59
2022/08/30 09:35:04;;;;;;;7.00;3.30;;;;;;;24.12;48.67;99559.40;109303;1277;22457;-59
2022/08/30 09:37:34;;;;;;;10.80;3.70;;;;;;;24.14;48.24;99563.31;109327;1274;23096;-59
2022/08/30 09:40:06;;;;;;;18.10;3.60;;;;;;;24.16;48.33;99566.95;109189;1274;138424;-59
2022/08/30 09:42:33;;;;;;;7.30;3.50;;;;;;;24.18;48.70;99564.70;109352;1274;22479;-59
2022/08/30 09:45:09;;;;;;;5.40;3.30;;;;;;;24.19;49.39;99569.70;109015;1276;138147;-59
2022/08/30 09:47:41;;;;;;;4.80;3.40;;;;;;;24.20;49.11;99560.59;109318;1274;22562;-59
2022/08/30 09:50:19;;;;;;;7.30;3.50;;;;;;;24.22;48.68;99561.41;109492;1274;22464;-59
2022/08/30 09:53:09;;;;;;;5.70;3.10;;;;;;;24.25;48.57;99562.73;109352;1277;22476;-59
2022/08/30 09:55:52;;;;;;;6.10;3.20;;;;;;;24.28;49.05;99564.20;109213;1276;22269;-59
2022/08/30 09:58:27;;;;;;;4.60;3.20;;;;;;;24.31;49.07;99560.80;109106;1274;139284;-59
2022/08/30 10:01:11;;;;;;;10.60;3.60;;;;;;;24.32;49.31;99561.46;109268;1274;22442;-60
2022/08/30 10:03:42;;;;;;;5.80;3.00;;;;;;;24.34;49.27;99560.73;109238;1274;137608;-59
2022/08/30 10:06:24;;;;;;;4.10;3.20;;;;;;;24.36;49.32;99565.40;109187;1276;23360;-59
2022/08/30 10:09:02;;;;;;;5.70;3.00;;;;;;;24.36;49.10;99563.36;109172;1277;138739;-60
2022/08/30 10:11:38;;;;;;;6.60;3.30;;;;;;;24.37;48.92;99563.40;109376;1274;22454;-60
2022/08/30 10:14:11;;;;;;;5.30;3.30;;;;;;;24.37;48.48;99562.17;109358;1274;23239;-60
2022/08/30 10:16:54;;;;;;;6.90;5.40;;;;;;;24.35;48.23;99561.34;109317;1274;23578;-59
2022/08/30 10:19:46;;;;;;;6.60;3.60;;;;;;;24.35;48.29;99557.73;109369;1274;22452;-59
2022/08/30 10:22:16;;;;;;;5.50;3.30;;;;;;;24.38;48.28;99563.56;109341;1274;137677;-60
2022/08/30 10:24:46;;;;;;;3.10;2.50;;;;;;;24.41;47.83;99561.57;109347;1274;22432;-59
2022/08/30 10:27:19;;;;;;;8.50;2.90;;;;;;;24.42;47.53;99562.96;109163;1274;137973;-60
2022/08/30 10:29:50;;;;;;;4.20;3.20;;;;;;;24.43;46.70;99564.29;109346;1275;22455;-59
2022/08/30 10:32:24;;;;;;;4.30;2.60;;;;;;;24.44;46.22;99559.95;109063;1277;139301;-60
2022/08/30 10:35:15;;;;;;;3.70;2.60;;;;;;;24.46;46.78;99556.84;109298;1275;22425;-60
2022/08/30 10:38:05;;;;;;;2.70;2.50;;;;;;;24.51;47.91;99551.42;109223;1277;22539;-60
2022/08/30 10:43:30;;;;;;;3.40;3.10;;;;;;;24.58;48.28;99553.95;109309;1276;22500;-59
2022/08/30 10:45:59;;;;;;;3.60;3.00;;;;;;;24.60;48.10;99551.23;109256;1274;137187;-59
2022/08/30 10:48:30;;;;;;;4.90;2.90;;;;;;;24.61;48.28;99548.30;109380;1274;22441;-59
2022/08/30 10:50:58;;;;;;;5.10;3.30;;;;;;;24.61;47.88;99546.96;109066;1274;137571;-59
2022/08/30 10:53:32;;;;;;;5.30;3.00;;;;;;;24.62;48.03;99542.55;109051;1277;22566;-59
2022/08/30 10:56:10;;;;;;;4.00;2.70;;;;;;;24.65;48.04;99547.32;109152;1274;22608;-59
2022/08/30 10:58:39;;;;;;;3.40;2.90;;;;;;;24.71;47.72;99547.39;109109;1277;22555;-59
2022/08/30 11:01:25;;;;;;;4.90;2.60;;;;;;;24.74;47.69;99544.00;109279;1277;22518;-59
2022/08/30 11:04:28;;;;;;;6.30;3.20;;;;;;;24.77;47.49;99539.15;109180;1274;138449;-60
2022/08/30 11:07:00;;;;;;;4.30;2.50;;;;;;;24.78;47.85;99531.95;108565;1284;22467;-59
2022/08/30 11:09:41;;;;;;;12.10;4.00;;;;;;;24.81;48.21;99538.00;108555;1281;137365;-59
2022/08/30 11:12:33;;;;;;;7.90;3.60;;;;;;;24.84;48.37;99527.64;108480;1283;23078;-59
2022/08/30 11:15:12;;;;;;;6.90;3.10;;;;;;;24.88;47.89;99527.62;108568;1283;138162;-59
2022/08/30 11:18:13;;;;;;;8.20;3.50;;;;;;;24.92;47.49;99527.98;108411;1284;22656;-59
2022/08/30 11:20:49;;;;;;;3.80;2.80;;;;;;;24.96;46.56;99530.21;107937;1288;138382;-59
2022/08/30 11:23:26;;;;;;;4.50;2.90;;;;;;;24.97;46.78;99527.38;107818;1290;22505;-58
2022/08/30 11:26:04;;;;;;;5.30;2.80;;;;;;;24.98;46.51;99525.08;108033;1288;23672;-59
2022/08/30 11:28:35;;;;;;;3.40;2.80;;;;;;;24.98;46.40;99528.27;107894;1289;137377;-58
2022/08/30 11:31:17;;;;;;;3.90;2.90;;;;;;;25.01;45.83;99522.60;108023;1288;22954;-59
2022/08/30 11:33:50;;;;;;;3.90;2.60;;;;;;;25.03;46.14;99521.06;107920;1287;138774;-58